Time;durP1;ratioP1;P1;durP2;ratioP2;P2;SDS_P1;SDS_P2;PMS_P1;PMS_P2;Temp;Humidity;BMP_temperature;BMP_pressure;BME280_temperature;BME280_humidity;BME280_pressure;Samples;Min_cycle;Max_cycle;Signal;HPM_P1;HPM_P2
2021/11/30 00:00:48;;;;;;;5.07;4.00;;;5.80;99.90;;;;;;5056880;28;20205;-55
2021/11/30 00:03:15;;;;;;;6.03;4.40;;;5.70;99.90;;;;;;5056719;28;20218;-55
2021/11/30 00:05:42;;;;;;;6.73;4.67;;;5.60;99.90;;;;;;5056331;28;20232;-56
2021/11/30 00:08:09;;;;;;;5.00;4.00;;;5.60;99.90;;;;;;5056385;28;20205;-55
2021/11/30 00:10:46;;;;;;;7.37;4.33;;;5.70;99.90;;;;;;5056169;28;20681;-55
2021/11/30 00:13:13;;;;;;;6.90;4.27;;;5.80;99.90;;;;;;5056548;28;20216;-56
2021/11/30 00:15:41;;;;;;;7.17;4.67;;;5.80;99.90;;;;;;5056529;28;20230;-55
2021/11/30 00:18:09;;;;;;;5.23;4.17;;;5.70;99.90;;;;;;5056193;28;20214;-54
2021/11/30 00:20:35;;;;;;;6.43;4.13;;;5.60;99.90;;;;;;5056409;28;20205;-55
2021/11/30 00:23:02;;;;;;;8.07;4.70;;;5.60;99.90;;;;;;5056455;28;20233;-56
2021/11/30 00:25:29;;;;;;;6.83;4.60;;;5.60;99.90;;;;;;5056431;28;20228;-55
2021/11/30 00:27:57;;;;;;;6.93;4.13;;;5.70;99.90;;;;;;5056136;28;20232;-57
2021/11/30 00:30:25;;;;;;;7.00;4.50;;;5.60;99.90;;;;;;5056315;28;20213;-57
2021/11/30 00:32:53;;;;;;;6.97;3.53;;;5.60;99.90;;;;;;5056559;28;20206;-55
2021/11/30 00:35:21;;;;;;;5.47;3.83;;;5.50;99.90;;;;;;5056100;28;20228;-55
2021/11/30 00:37:48;;;;;;;4.87;3.80;;;5.50;99.90;;;;;;5056066;28;20689;-55
2021/11/30 00:40:16;;;;;;;10.27;4.20;;;5.50;99.90;;;;;;5056508;28;20212;-55
2021/11/30 00:42:43;;;;;;;6.57;3.80;;;5.40;99.90;;;;;;5055935;28;20724;-55
2021/11/30 00:45:16;;;;;;;4.97;3.50;;;5.40;99.90;;;;;;5055699;28;20597;-55
2021/11/30 00:47:49;;;;;;;4.80;4.17;;;5.40;99.90;;;;;;5055831;28;20267;-56
2021/11/30 00:50:16;;;;;;;6.47;3.70;;;5.30;99.90;;;;;;5057238;28;20212;-54
2021/11/30 00:52:43;;;;;;;4.93;3.70;;;5.40;99.90;;;;;;5056092;28;20205;-53
2021/11/30 00:55:11;;;;;;;5.20;3.77;;;5.30;99.90;;;;;;5056202;28;20602;-57
2021/11/30 00:57:40;;;;;;;5.70;3.83;;;5.40;99.90;;;;;;5056237;28;20205;-53
2021/11/30 01:00:09;;;;;;;6.43;3.80;;;5.50;99.90;;;;;;5056535;28;20236;-54
2021/11/30 01:02:37;;;;;;;5.20;3.40;;;5.50;99.90;;;;;;5056627;28;20210;-54
2021/11/30 01:05:05;;;;;;;3.93;3.00;;;5.40;99.90;;;;;;5056816;28;20232;-56
2021/11/30 01:07:35;;;;;;;4.03;3.30;;;5.40;99.90;;;;;;5056445;28;20210;-52
2021/11/30 01:10:03;;;;;;;3.43;3.10;;;5.30;99.90;;;;;;5055677;28;20279;-54
2021/11/30 01:12:30;;;;;;;5.67;3.30;;;5.30;99.90;;;;;;5055579;28;20236;-54
2021/11/30 01:14:57;;;;;;;3.53;3.20;;;5.30;99.90;;;;;;5055322;28;20233;-54
2021/11/30 01:17:24;;;;;;;4.97;3.30;;;5.30;99.90;;;;;;5055656;28;20201;-54
2021/11/30 01:19:52;;;;;;;7.70;3.63;;;5.30;99.90;;;;;;5054979;28;20255;-54
2021/11/30 01:22:18;;;;;;;7.40;3.57;;;5.30;99.90;;;;;;5055107;28;20275;-54
2021/11/30 01:24:45;;;;;;;5.37;3.30;;;5.20;99.90;;;;;;5055023;28;20225;-54
2021/11/30 01:27:12;;;;;;;5.00;3.53;;;5.30;99.90;;;;;;5055010;28;20232;-54
2021/11/30 01:29:39;;;;;;;3.40;3.03;;;5.30;99.90;;;;;;5054744;28;20202;-54
2021/11/30 01:32:07;;;;;;;7.23;3.67;;;5.40;99.90;;;;;;5055418;28;20205;-53
2021/11/30 01:34:33;;;;;;;4.93;3.50;;;5.20;99.90;;;;;;5054915;28;20234;-54
2021/11/30 01:37:01;;;;;;;5.53;4.07;;;5.20;99.90;;;;;;5054633;28;20206;-56
2021/11/30 01:39:28;;;;;;;5.60;3.53;;;5.10;99.90;;;;;;5054759;28;20206;-56
2021/11/30 01:41:56;;;;;;;5.53;3.80;;;5.10;99.90;;;;;;5054987;28;20665;-54
2021/11/30 01:44:38;;;;;;;7.07;3.73;;;5.20;99.90;;;;;;5054906;28;20249;-54
2021/11/30 01:47:12;;;;;;;6.73;3.80;;;5.30;99.90;;;;;;5055013;28;20275;-54
2021/11/30 01:49:38;;;;;;;4.53;3.97;;;5.30;99.90;;;;;;5054735;28;20213;-55
2021/11/30 01:52:07;;;;;;;5.17;3.50;;;5.40;99.90;;;;;;5055007;28;20240;-55
2021/11/30 01:54:38;;;;;;;4.73;3.70;;;5.30;99.90;;;;;;5054405;28;20257;-56
2021/11/30 01:57:06;;;;;;;5.77;3.30;;;5.20;99.90;;;;;;5054575;28;20658;-55
2021/11/30 01:59:32;;;;;;;4.90;3.40;;;5.10;99.90;;;;;;5054403;28;20225;-56
2021/11/30 02:01:59;;;;;;;5.70;3.20;;;5.10;99.90;;;;;;5054564;28;20684;-54
2021/11/30 02:04:26;;;;;;;7.57;3.80;;;5.20;99.90;;;;;;5053964;28;20254;-54
2021/11/30 02:06:53;;;;;;;7.23;3.50;;;5.40;99.90;;;;;;5054284;28;20389;-55
2021/11/30 02:09:21;;;;;;;5.43;3.30;;;5.30;99.90;;;;;;5053841;28;20692;-54
2021/11/30 02:11:48;;;;;;;5.13;3.30;;;5.40;99.90;;;;;;5054166;28;20232;-54
2021/11/30 02:14:14;;;;;;;7.37;3.90;;;5.30;99.90;;;;;;5054491;28;20248;-54
2021/11/30 02:16:41;;;;;;;5.10;3.43;;;5.30;99.90;;;;;;5054209;28;20228;-55
2021/11/30 02:19:08;;;;;;;5.00;3.40;;;5.30;99.90;;;;;;5054140;28;20201;-54
2021/11/30 02:21:39;;;;;;;5.40;3.50;;;5.30;99.90;;;;;;5054161;28;20202;-55
2021/11/30 02:24:07;;;;;;;5.37;3.60;;;5.30;99.90;;;;;;5053889;28;20261;-54
2021/11/30 02:26:36;;;;;;;6.07;3.33;;;5.30;99.90;;;;;;5053968;28;20236;-54
2021/11/30 02:29:04;;;;;;;7.83;3.53;;;5.40;99.90;;;;;;5053754;28;20233;-54
2021/11/30 02:31:36;;;;;;;6.57;3.30;;;5.30;99.90;;;;;;5054062;28;20202;-57
2021/11/30 02:34:04;;;;;;;4.87;3.17;;;5.30;99.90;;;;;;5053762;28;20304;-54
2021/11/30 02:36:36;;;;;;;3.97;3.27;;;5.30;99.90;;;;;;5053992;28;20228;-54
2021/11/30 02:39:08;;;;;;;4.17;2.80;;;5.40;99.90;;;;;;5053931;28;20292;-54
2021/11/30 02:41:35;;;;;;;3.13;2.80;;;5.50;99.90;;;;;;5053986;28;20205;-54
2021/11/30 02:44:03;;;;;;;4.77;3.13;;;5.50;99.90;;;;;;5053468;28;20210;-55
2021/11/30 02:46:35;;;;;;;4.57;3.20;;;5.50;99.90;;;;;;5053497;28;20221;-54
2021/11/30 02:49:03;;;;;;;7.00;3.60;;;5.50;99.90;;;;;;5054049;28;20279;-54
2021/11/30 02:51:31;;;;;;;4.67;2.70;;;5.50;99.90;;;;;;5054117;28;20272;-56
2021/11/30 02:53:59;;;;;;;4.90;2.80;;;5.50;99.90;;;;;;5053681;28;20243;-54
2021/11/30 02:56:28;;;;;;;5.27;2.90;;;5.50;99.90;;;;;;5053511;28;20205;-56
2021/11/30 02:58:55;;;;;;;4.13;2.67;;;5.50;99.90;;;;;;5053304;28;20206;-54
2021/11/30 03:01:22;;;;;;;5.37;2.50;;;5.60;99.90;;;;;;5053507;28;20216;-54
2021/11/30 03:03:49;;;;;;;3.43;2.90;;;5.60;99.90;;;;;;5053662;28;20201;-56
2021/11/30 03:06:16;;;;;;;3.50;2.10;;;5.60;99.90;;;;;;5053506;28;20217;-54
2021/11/30 03:08:43;;;;;;;6.63;2.30;;;5.60;99.90;;;;;;5053522;28;20217;-54
2021/11/30 03:11:10;;;;;;;6.80;2.70;;;5.60;99.90;;;;;;5053208;28;20211;-54
2021/11/30 03:13:38;;;;;;;3.70;2.20;;;5.60;99.90;;;;;;5053246;28;20206;-54
2021/11/30 03:16:05;;;;;;;3.07;2.10;;;5.60;99.90;;;;;;5052128;28;20611;-55
2021/11/30 03:18:36;;;;;;;5.57;2.33;;;5.50;99.90;;;;;;5053421;28;20217;-54
2021/11/30 03:21:04;;;;;;;2.87;1.90;;;5.50;99.90;;;;;;5053108;28;20227;-54
2021/11/30 03:23:31;;;;;;;4.63;2.10;;;5.60;99.90;;;;;;5053229;28;20245;-54
2021/11/30 03:25:57;;;;;;;4.73;1.87;;;5.60;99.90;;;;;;5053210;28;20351;-54
2021/11/30 03:28:25;;;;;;;5.47;2.00;;;5.60;99.90;;;;;;5053037;28;20205;-54
2021/11/30 03:31:02;;;;;;;6.97;2.40;;;5.60;99.90;;;;;;5053197;28;20681;-54
2021/11/30 03:36:13;;;;;;;5.63;2.13;;;5.60;99.90;;;;;;5053494;28;20707;-57
2021/11/30 03:38:40;;;;;;;3.80;2.10;;;5.50;99.90;;;;;;5052987;28;20704;-54
2021/11/30 03:41:08;;;;;;;4.17;1.70;;;5.40;99.90;;;;;;5053478;28;20209;-54
2021/11/30 03:43:35;;;;;;;5.37;1.90;;;5.40;99.90;;;;;;5053387;28;20205;-54
2021/11/30 03:46:04;;;;;;;4.70;1.70;;;5.40;99.90;;;;;;5053134;28;20225;-54
2021/11/30 03:48:31;;;;;;;4.30;1.93;;;5.40;99.90;;;;;;5052939;28;20202;-54
2021/11/30 03:50:58;;;;;;;3.87;2.00;;;5.40;99.90;;;;;;5052771;28;20247;-55
2021/11/30 03:53:25;;;;;;;4.53;1.97;;;5.50;99.90;;;;;;5052888;28;20212;-54
2021/11/30 03:55:52;;;;;;;4.77;1.80;;;5.50;99.90;;;;;;5053051;28;20228;-54
2021/11/30 03:58:18;;;;;;;3.53;1.87;;;5.50;99.90;;;;;;5052878;28;20707;-54
2021/11/30 04:00:46;;;;;;;2.10;1.90;;;5.60;99.90;;;;;;5052652;28;20707;-55
2021/11/30 04:03:14;;;;;;;2.80;1.87;;;5.50;99.90;;;;;;5053118;28;20205;-55
2021/11/30 04:05:40;;;;;;;3.67;1.90;;;5.50;99.90;;;;;;5052367;28;20366;-55
2021/11/30 04:08:07;;;;;;;2.23;1.43;;;5.50;99.90;;;;;;5052652;28;20606;-54
2021/11/30 04:10:34;;;;;;;3.40;1.43;;;5.40;99.90;;;;;;5052927;28;20704;-55
2021/11/30 04:13:01;;;;;;;4.07;1.30;;;5.40;99.90;;;;;;5052884;28;20209;-54
2021/11/30 04:15:28;;;;;;;4.73;1.83;;;5.50;99.90;;;;;;5052688;28;20241;-55
2021/11/30 04:17:54;;;;;;;3.27;1.53;;;5.50;99.90;;;;;;5052605;28;20201;-55
2021/11/30 04:20:23;;;;;;;4.07;1.50;;;5.50;99.90;;;;;;5052540;28;20236;-54
2021/11/30 04:22:50;;;;;;;4.30;2.00;;;5.50;99.90;;;;;;5052539;28;20217;-54
2021/11/30 04:25:17;;;;;;;4.13;1.50;;;5.50;99.90;;;;;;5052612;28;20230;-55
2021/11/30 04:27:44;;;;;;;1.80;1.50;;;5.50;99.90;;;;;;5055025;28;20241;-54
2021/11/30 04:30:11;;;;;;;1.73;1.20;;;5.50;99.90;;;;;;5056069;28;20210;-54
2021/11/30 04:32:38;;;;;;;2.87;1.37;;;5.40;99.90;;;;;;5056523;28;20201;-56
2021/11/30 04:35:07;;;;;;;4.30;1.40;;;5.30;99.90;;;;;;5056183;28;20230;-55
2021/11/30 04:37:35;;;;;;;2.93;1.30;;;5.40;99.90;;;;;;5055908;28;20221;-54
2021/11/30 04:40:02;;;;;;;2.40;1.70;;;5.40;99.90;;;;;;5055750;28;20251;-54
2021/11/30 04:42:30;;;;;;;4.57;1.70;;;5.60;99.90;;;;;;5056202;28;20233;-55
2021/11/30 04:45:03;;;;;;;4.87;1.60;;;5.50;99.90;;;;;;5056127;28;20228;-54
2021/11/30 04:47:33;;;;;;;2.30;1.97;;;5.50;99.90;;;;;;5055908;28;20233;-54
2021/11/30 04:50:02;;;;;;;6.53;1.63;;;5.40;99.90;;;;;;5055926;28;20205;-54
2021/11/30 04:52:29;;;;;;;3.70;1.93;;;5.30;99.90;;;;;;5055687;28;20206;-54
2021/11/30 04:54:58;;;;;;;3.33;1.50;;;5.30;99.90;;;;;;5055755;28;20232;-54
2021/11/30 04:57:25;;;;;;;2.80;1.50;;;5.30;99.90;;;;;;5055447;28;20307;-54
2021/11/30 04:59:51;;;;;;;3.50;1.80;;;5.30;99.90;;;;;;5055487;28;20209;-54
2021/11/30 05:02:20;;;;;;;2.37;1.60;;;5.30;99.90;;;;;;5055862;28;20210;-55
2021/11/30 05:04:47;;;;;;;3.80;1.70;;;5.30;99.90;;;;;;5056233;28;20229;-54
2021/11/30 05:07:15;;;;;;;5.20;1.87;;;5.40;99.90;;;;;;5055749;28;20279;-55
2021/11/30 05:09:42;;;;;;;3.37;1.90;;;5.30;99.90;;;;;;5055091;28;20620;-55
2021/11/30 05:12:11;;;;;;;4.03;1.83;;;5.30;99.90;;;;;;5055181;28;20217;-57
2021/11/30 05:14:38;;;;;;;3.97;1.60;;;5.30;99.90;;;;;;5074981;22;20242;-59
2021/11/30 05:17:05;;;;;;;4.43;1.93;;;5.30;99.90;;;;;;5046993;28;20201;-59
2021/11/30 05:19:32;;;;;;;3.17;2.03;;;5.20;99.90;;;;;;5054586;28;20232;-59
2021/11/30 05:21:58;;;;;;;4.57;2.20;;;5.20;99.90;;;;;;5054581;28;20220;-59
2021/11/30 05:24:25;;;;;;;2.27;1.17;;;5.20;99.90;;;;;;5054537;28;20229;-59
2021/11/30 05:26:54;;;;;;;6.43;1.80;;;5.20;99.90;;;;;;5054655;28;20720;-58
2021/11/30 05:29:22;;;;;;;2.03;1.50;;;5.30;99.90;;;;;;5054339;28;20635;-58
2021/11/30 05:31:48;;;;;;;2.50;1.70;;;5.20;99.90;;;;;;5054445;28;20205;-59
2021/11/30 05:34:15;;;;;;;3.57;1.83;;;5.20;99.90;;;;;;5054477;28;20260;-59
2021/11/30 05:36:42;;;;;;;3.63;1.67;;;5.20;99.90;;;;;;5053956;28;20664;-58
2021/11/30 05:39:08;;;;;;;7.47;1.60;;;5.20;99.90;;;;;;5053541;28;20660;-58
2021/11/30 05:41:35;;;;;;;2.97;1.70;;;5.20;99.90;;;;;;5054018;28;20209;-58
2021/11/30 05:44:02;;;;;;;4.67;2.07;;;5.20;99.90;;;;;;5054173;28;20209;-59
2021/11/30 05:46:32;;;;;;;4.03;2.47;;;5.20;99.90;;;;;;5054486;28;20241;-58
2021/11/30 05:48:59;;;;;;;5.40;2.10;;;5.20;99.90;;;;;;5054005;28;20209;-58
2021/11/30 05:51:26;;;;;;;2.63;1.70;;;5.30;99.90;;;;;;5054196;28;20259;-59
2021/11/30 05:53:53;;;;;;;4.60;1.93;;;5.30;99.90;;;;;;5054169;28;20209;-58
2021/11/30 05:56:19;;;;;;;3.17;2.10;;;5.20;99.90;;;;;;5054060;28;20905;-59
2021/11/30 05:58:46;;;;;;;7.00;2.63;;;5.20;99.90;;;;;;5054273;28;20209;-59
2021/11/30 06:01:21;;;;;;;2.47;1.70;;;5.30;99.90;;;;;;5053887;28;20670;-58
2021/11/30 06:03:59;;;;;;;5.40;2.30;;;5.20;99.90;;;;;;5054108;28;20220;-59
2021/11/30 06:06:29;;;;;;;3.60;1.90;;;5.10;99.90;;;;;;5053591;28;20236;-59
2021/11/30 06:08:55;;;;;;;4.40;3.10;;;5.10;99.90;;;;;;5054176;28;20669;-58
2021/11/30 06:11:22;;;;;;;6.03;2.57;;;5.00;99.90;;;;;;5053792;28;20213;-59
2021/11/30 06:13:49;;;;;;;6.13;2.00;;;5.10;99.90;;;;;;5053575;28;20210;-59
2021/11/30 06:16:16;;;;;;;3.93;2.20;;;4.90;99.90;;;;;;5053530;28;20689;-58
2021/11/30 06:18:43;;;;;;;3.83;2.43;;;4.80;99.90;;;;;;5053206;28;20201;-59
2021/11/30 06:21:12;;;;;;;3.77;2.03;;;4.70;99.90;;;;;;5053791;28;20206;-58
2021/11/30 06:23:40;;;;;;;3.63;2.60;;;4.80;99.90;;;;;;5053972;28;20205;-59
2021/11/30 06:26:07;;;;;;;3.60;2.70;;;4.60;99.90;;;;;;5054059;28;20221;-58
2021/11/30 06:28:35;;;;;;;5.90;2.10;;;4.50;99.90;;;;;;5053033;28;20221;-58
2021/11/30 06:31:01;;;;;;;3.77;2.23;;;4.40;99.90;;;;;;5053010;28;20202;-58
2021/11/30 06:33:28;;;;;;;3.33;2.47;;;4.30;99.90;;;;;;5053159;28;20212;-58
2021/11/30 06:35:55;;;;;;;5.43;2.80;;;4.30;99.90;;;;;;5052653;28;20469;-58
2021/11/30 06:38:23;;;;;;;3.50;2.50;;;4.30;99.90;;;;;;5052592;28;20206;-58
2021/11/30 06:40:50;;;;;;;2.70;2.30;;;4.20;99.90;;;;;;5052811;28;20236;-58
2021/11/30 06:43:17;;;;;;;3.20;2.37;;;4.20;99.90;;;;;;5052659;28;20585;-58
2021/11/30 06:45:44;;;;;;;4.17;2.90;;;4.20;99.90;;;;;;5053298;28;20309;-58
2021/11/30 06:48:11;;;;;;;5.93;3.03;;;4.10;99.90;;;;;;5052721;28;20228;-58
2021/11/30 06:50:38;;;;;;;4.83;2.70;;;4.10;99.90;;;;;;5052546;28;20209;-57
2021/11/30 06:53:05;;;;;;;4.17;2.50;;;4.10;99.90;;;;;;5052934;28;20293;-58
2021/11/30 06:55:33;;;;;;;5.40;2.73;;;4.10;99.90;;;;;;5052974;28;20241;-58
2021/11/30 06:58:00;;;;;;;3.87;3.00;;;4.10;99.90;;;;;;5052514;28;20212;-58
2021/11/30 07:00:27;;;;;;;4.87;3.10;;;4.10;99.90;;;;;;5052714;28;20212;-59
2021/11/30 07:02:55;;;;;;;4.90;3.30;;;4.10;99.90;;;;;;5052948;28;20232;-58
2021/11/30 07:05:26;;;;;;;4.13;2.90;;;4.10;99.90;;;;;;5052765;28;20225;-58
2021/11/30 07:08:16;;;;;;;6.50;3.10;;;4.00;99.90;;;;;;5052657;28;20265;-58
2021/11/30 07:10:46;;;;;;;4.97;3.10;;;4.00;99.90;;;;;;5052446;28;20209;-58
2021/11/30 07:13:26;;;;;;;4.57;3.10;;;3.90;99.90;;;;;;5052671;28;20205;-58
2021/11/30 07:15:56;;;;;;;3.47;2.90;;;3.90;99.90;;;;;;5052424;28;20576;-58
2021/11/30 07:18:24;;;;;;;5.30;2.83;;;3.90;99.90;;;;;;5052692;28;20208;-58
2021/11/30 07:20:51;;;;;;;3.87;2.77;;;4.00;99.90;;;;;;5052289;28;20201;-58
2021/11/30 07:23:18;;;;;;;5.00;3.50;;;4.00;99.90;;;;;;5052371;28;20217;-58
2021/11/30 07:25:51;;;;;;;6.43;2.97;;;3.90;99.90;;;;;;5052221;28;20226;-58
2021/11/30 07:28:18;;;;;;;5.53;3.27;;;4.00;99.90;;;;;;5051968;28;20276;-58
2021/11/30 07:30:44;;;;;;;4.07;2.50;;;4.00;99.90;;;;;;5052219;28;20209;-58
2021/11/30 07:33:12;;;;;;;7.20;3.27;;;4.10;99.90;;;;;;5052825;28;20210;-58
2021/11/30 07:35:39;;;;;;;6.23;2.93;;;4.20;99.90;;;;;;5052254;28;20225;-58
2021/11/30 07:38:06;;;;;;;7.37;2.90;;;4.20;99.90;;;;;;5052072;28;20233;-58
2021/11/30 07:40:32;;;;;;;3.77;2.80;;;4.20;99.90;;;;;;5051995;28;20571;-58
2021/11/30 07:43:00;;;;;;;3.30;2.50;;;4.30;99.90;;;;;;5052198;28;20210;-58
2021/11/30 07:45:28;;;;;;;3.70;2.30;;;4.50;99.90;;;;;;5051947;28;20717;-59
2021/11/30 07:47:54;;;;;;;7.57;4.50;;;4.30;99.90;;;;;;5051965;28;20229;-59
2021/11/30 07:50:21;;;;;;;2.80;2.30;;;4.30;99.90;;;;;;5051536;28;20680;-58
2021/11/30 07:52:48;;;;;;;2.20;2.00;;;4.30;99.90;;;;;;5051824;28;20583;-58
2021/11/30 07:55:17;;;;;;;4.40;2.13;;;4.20;99.90;;;;;;5052567;28;20252;-59
2021/11/30 07:57:45;;;;;;;2.70;2.17;;;4.20;99.90;;;;;;5051898;28;20199;-59
2021/11/30 08:00:15;;;;;;;3.27;2.30;;;4.10;99.90;;;;;;5051618;28;20205;-58
2021/11/30 08:02:43;;;;;;;2.37;2.17;;;4.10;99.90;;;;;;5055124;28;20213;-59
2021/11/30 08:05:10;;;;;;;3.37;1.80;;;4.00;99.90;;;;;;5055925;28;20225;-59
2021/11/30 08:07:37;;;;;;;2.63;2.00;;;4.00;99.90;;;;;;5056382;28;20236;-58
2021/11/30 08:10:07;;;;;;;3.13;2.20;;;4.10;99.90;;;;;;5056182;28;20208;-59
2021/11/30 08:12:34;;;;;;;2.70;1.80;;;4.10;99.90;;;;;;5056104;28;20210;-59
2021/11/30 08:15:01;;;;;;;8.17;2.43;;;4.10;99.90;;;;;;5055740;28;20732;-59
2021/11/30 08:17:30;;;;;;;4.27;2.10;;;4.10;99.90;;;;;;5055524;28;20209;-59
2021/11/30 08:19:56;;;;;;;3.53;2.17;;;4.20;99.90;;;;;;5055295;28;20201;-59
2021/11/30 08:22:23;;;;;;;6.17;2.03;;;4.20;99.90;;;;;;5055825;28;20202;-58
2021/11/30 08:24:50;;;;;;;3.87;2.10;;;4.20;99.90;;;;;;5056369;28;20287;-58
2021/11/30 08:27:19;;;;;;;3.47;1.93;;;4.10;99.90;;;;;;5056211;28;20592;-59
2021/11/30 08:29:49;;;;;;;2.30;1.73;;;4.10;99.90;;;;;;5056109;28;20206;-59
2021/11/30 08:32:16;;;;;;;2.40;1.90;;;4.10;99.90;;;;;;5056035;28;20210;-58
2021/11/30 08:34:44;;;;;;;3.30;1.90;;;4.00;99.90;;;;;;5056051;28;20289;-58
2021/11/30 08:37:11;;;;;;;3.10;1.50;;;3.90;99.90;;;;;;5056405;28;20210;-58
2021/11/30 08:39:39;;;;;;;2.03;1.83;;;3.90;99.90;;;;;;5056297;28;20212;-58
2021/11/30 08:42:08;;;;;;;4.10;1.80;;;3.90;99.90;;;;;;5055808;28;20206;-59
2021/11/30 08:44:35;;;;;;;2.23;1.60;;;3.90;99.90;;;;;;5055908;28;20221;-58
2021/11/30 08:47:04;;;;;;;5.57;2.77;;;4.00;99.90;;;;;;5055741;28;20707;-59
2021/11/30 08:49:31;;;;;;;2.57;1.87;;;4.00;99.90;;;;;;5055293;28;20682;-58
2021/11/30 08:52:00;;;;;;;2.87;1.97;;;4.00;99.90;;;;;;5055975;28;20210;-58
2021/11/30 08:54:29;;;;;;;3.80;1.80;;;4.00;99.90;;;;;;5055587;28;20233;-58
2021/11/30 08:56:55;;;;;;;2.83;1.60;;;4.00;99.90;;;;;;5055598;28;20245;-58
2021/11/30 08:59:22;;;;;;;4.40;1.73;;;4.00;99.90;;;;;;5054789;28;20201;-58
2021/11/30 09:01:49;;;;;;;2.87;1.67;;;3.90;99.90;;;;;;5055186;28;20206;-58
2021/11/30 09:04:16;;;;;;;3.10;1.70;;;3.90;99.90;;;;;;5055240;28;20206;-58
2021/11/30 09:06:42;;;;;;;3.00;1.70;;;3.90;99.90;;;;;;5055223;28;20206;-58
2021/11/30 09:09:11;;;;;;;2.67;1.77;;;3.80;99.90;;;;;;5054594;28;20237;-58
2021/11/30 09:11:39;;;;;;;2.57;1.90;;;3.90;99.90;;;;;;5054802;28;20213;-58
2021/11/30 09:14:08;;;;;;;2.20;2.00;;;4.00;99.90;;;;;;5053077;28;20217;-58
2021/11/30 09:16:36;;;;;;;4.63;1.90;;;4.10;99.90;;;;;;5054809;28;20233;-57
2021/11/30 09:19:04;;;;;;;3.07;2.40;;;4.10;99.90;;;;;;5054336;28;20209;-58
2021/11/30 09:21:31;;;;;;;3.00;2.10;;;4.10;99.90;;;;;;5054700;28;20559;-58
2021/11/30 09:23:58;;;;;;;3.20;1.80;;;4.10;99.90;;;;;;5054689;28;20209;-57
2021/11/30 09:26:27;;;;;;;4.37;2.00;;;4.10;99.90;;;;;;5054580;28;20237;-57
2021/11/30 09:28:53;;;;;;;2.73;1.80;;;4.00;99.90;;;;;;5053912;28;20673;-59
2021/11/30 09:31:20;;;;;;;2.93;2.10;;;4.10;99.90;;;;;;5054375;28;20214;-58
2021/11/30 09:33:48;;;;;;;3.37;1.80;;;4.10;99.90;;;;;;5054515;28;20205;-60
2021/11/30 09:36:16;;;;;;;3.50;1.60;;;4.10;99.90;;;;;;5055207;28;20229;-61
2021/11/30 09:38:44;;;;;;;2.00;1.70;;;4.20;99.90;;;;;;5055188;28;20581;-66
2021/11/30 09:41:12;;;;;;;2.20;1.60;;;4.20;99.90;;;;;;5054383;28;20216;-62
2021/11/30 09:43:41;;;;;;;4.30;1.70;;;4.20;99.90;;;;;;5054056;28;20205;-61
2021/11/30 09:46:08;;;;;;;3.87;1.90;;;4.30;99.90;;;;;;5053995;28;20225;-61
2021/11/30 09:48:36;;;;;;;2.20;1.80;;;4.30;99.90;;;;;;5053547;28;20222;-61
2021/11/30 09:51:04;;;;;;;4.67;1.80;;;4.30;99.90;;;;;;5053871;28;20209;-61
2021/11/30 09:53:32;;;;;;;3.73;2.30;;;4.20;99.90;;;;;;5053846;28;20216;-61
2021/11/30 09:55:58;;;;;;;2.97;2.17;;;4.20;99.90;;;;;;5053912;28;20232;-61
2021/11/30 09:58:26;;;;;;;3.53;2.00;;;4.20;99.90;;;;;;5053523;28;20296;-61
2021/11/30 10:00:56;;;;;;;4.03;1.63;;;4.30;99.90;;;;;;5053501;28;20206;-60
2021/11/30 10:03:24;;;;;;;3.23;1.57;;;4.30;99.90;;;;;;5053822;28;20217;-60
2021/11/30 10:05:52;;;;;;;1.73;1.50;;;4.30;99.90;;;;;;5053216;28;20230;-61
2021/11/30 10:08:28;;;;;;;2.63;1.73;;;4.30;99.90;;;;;;5053248;28;20662;-60
2021/11/30 10:10:55;;;;;;;2.37;1.47;;;4.30;99.90;;;;;;5053538;28;20284;-65
2021/11/30 10:13:22;;;;;;;3.10;1.70;;;4.20;99.90;;;;;;5054218;28;20637;-58
2021/11/30 10:16:01;;;;;;;1.50;1.40;;;4.30;99.90;;;;;;5053030;28;20237;-58
2021/11/30 10:18:31;;;;;;;2.57;1.40;;;4.40;99.90;;;;;;5053252;28;20201;-57
2021/11/30 10:21:19;;;;;;;2.37;1.87;;;4.40;99.90;;;;;;5053183;28;20209;-58
2021/11/30 10:23:47;;;;;;;3.23;1.50;;;4.40;99.90;;;;;;5053075;28;20240;-57
2021/11/30 10:26:14;;;;;;;3.50;1.67;;;4.30;99.90;;;;;;5052460;28;20233;-57
2021/11/30 10:28:40;;;;;;;2.60;2.13;;;4.30;99.90;;;;;;5053038;28;20693;-58
2021/11/30 10:31:11;;;;;;;2.00;1.60;;;4.30;99.90;;;;;;5053223;28;20213;-58
2021/11/30 10:33:38;;;;;;;4.67;2.10;;;4.40;99.90;;;;;;5053343;28;20205;-58
2021/11/30 10:36:06;;;;;;;3.33;1.53;;;4.30;99.90;;;;;;5053170;28;20225;-58
2021/11/30 10:38:36;;;;;;;2.27;1.20;;;4.30;99.90;;;;;;5052859;28;20304;-60
2021/11/30 10:41:14;;;;;;;3.60;1.30;;;4.30;99.90;;;;;;5053191;28;20216;-60
2021/11/30 10:43:42;;;;;;;3.23;1.10;;;4.30;99.90;;;;;;5052797;28;20228;-60
2021/11/30 10:46:24;;;;;;;1.23;1.13;;;4.40;99.90;;;;;;5052535;28;20232;-61
2021/11/30 10:48:51;;;;;;;2.30;1.80;;;4.30;99.90;;;;;;5052465;28;20230;-60
2021/11/30 10:51:18;;;;;;;1.60;1.10;;;4.30;99.90;;;;;;5052962;28;20201;-60
2021/11/30 10:53:48;;;;;;;2.50;1.37;;;4.40;99.90;;;;;;5052742;28;20205;-61
2021/11/30 10:56:17;;;;;;;4.57;1.70;;;4.40;99.90;;;;;;5052602;28;20251;-62
2021/11/30 10:58:44;;;;;;;1.67;1.50;;;4.40;99.90;;;;;;5052842;28;20206;-61
2021/11/30 11:01:16;;;;;;;1.67;1.33;;;4.40;99.90;;;;;;5052850;28;20205;-62
2021/11/30 11:03:46;;;;;;;2.43;1.10;;;4.50;99.90;;;;;;5052877;28;20589;-59
2021/11/30 11:06:31;;;;;;;1.70;1.30;;;4.50;99.90;;;;;;5052386;28;20705;-60
2021/11/30 11:09:02;;;;;;;4.10;1.43;;;4.50;99.90;;;;;;5052466;28;20229;-61
2021/11/30 11:11:34;;;;;;;2.97;1.40;;;4.50;99.90;;;;;;5052873;28;20205;-60
2021/11/30 11:14:02;;;;;;;1.43;1.03;;;4.50;99.90;;;;;;5052690;28;20206;-62
2021/11/30 11:16:33;;;;;;;1.93;1.10;;;4.50;99.90;;;;;;5052585;28;20233;-61
2021/11/30 11:19:02;;;;;;;2.37;1.20;;;4.50;99.90;;;;;;5052179;28;20293;-60
2021/11/30 11:21:31;;;;;;;5.23;2.50;;;4.50;99.90;;;;;;5052436;28;20213;-60
2021/11/30 11:24:07;;;;;;;3.70;1.70;;;4.60;99.90;;;;;;5053166;28;20673;-59
2021/11/30 11:26:37;;;;;;;3.13;1.57;;;4.60;99.90;;;;;;5052400;28;20267;-61
2021/11/30 11:29:07;;;;;;;2.93;1.20;;;4.70;99.90;;;;;;5052038;28;20225;-60
2021/11/30 11:31:36;;;;;;;1.80;0.90;;;4.60;99.90;;;;;;5052088;28;20283;-60
2021/11/30 11:34:05;;;;;;;1.83;1.17;;;4.60;99.90;;;;;;5052093;28;20569;-60
2021/11/30 11:36:32;;;;;;;1.50;1.10;;;4.60;99.90;;;;;;5051564;28;20212;-60
2021/11/30 11:39:01;;;;;;;0.70;0.70;;;4.50;99.90;;;;;;5052031;28;20659;-61
2021/11/30 11:41:29;;;;;;;0.90;0.90;;;4.60;99.90;;;;;;5051985;28;20202;-60
2021/11/30 11:43:57;;;;;;;2.00;1.27;;;4.60;99.90;;;;;;5051944;28;20209;-60
2021/11/30 11:46:26;;;;;;;3.57;1.70;;;4.60;99.90;;;;;;5052144;28;20229;-62
2021/11/30 11:48:59;;;;;;;6.33;3.77;;;4.70;99.90;;;;;;5048399;28;20233;-60
2021/11/30 11:51:35;;;;;;;4.23;1.80;;;4.80;99.90;;;;;;5031787;28;20210;-61
2021/11/30 11:54:02;;;;;;;3.67;1.20;;;4.80;99.90;;;;;;5032445;28;20213;-62
2021/11/30 11:56:31;;;;;;;2.17;1.63;;;4.80;99.90;;;;;;5031975;28;20222;-61
2021/11/30 11:59:13;;;;;;;2.13;1.40;;;4.80;99.90;;;;;;5032531;28;20210;-64
2021/11/30 12:01:42;;;;;;;1.90;1.40;;;4.90;99.90;;;;;;5032494;28;20250;-61
2021/11/30 12:04:12;;;;;;;3.60;1.23;;;4.90;99.90;;;;;;5031964;28;20232;-60
2021/11/30 12:06:50;;;;;;;2.00;1.20;;;4.90;99.90;;;;;;5031888;28;20210;-60
2021/11/30 12:09:20;;;;;;;1.17;1.00;;;4.90;99.90;;;;;;5032131;28;20257;-60
2021/11/30 12:11:49;;;;;;;1.67;1.20;;;5.00;99.90;;;;;;5032358;28;20208;-60
2021/11/30 12:14:21;;;;;;;3.37;1.40;;;5.00;99.90;;;;;;5031834;28;20301;-60
2021/11/30 12:17:07;;;;;;;2.13;1.23;;;5.00;99.90;;;;;;5032595;28;20207;-68
2021/11/30 12:19:38;;;;;;;2.17;1.50;;;5.00;99.90;;;;;;5031842;28;20637;-60
2021/11/30 12:22:05;;;;;;;4.87;2.97;;;5.10;99.90;;;;;;5032071;28;20583;-60
2021/11/30 12:24:34;;;;;;;3.87;1.90;;;5.10;99.90;;;;;;5032074;28;20227;-59
2021/11/30 12:27:01;;;;;;;2.83;1.57;;;5.10;99.90;;;;;;5031989;28;20210;-59
2021/11/30 12:29:36;;;;;;;2.30;1.37;;;5.10;99.90;;;;;;5031284;28;20241;-59
2021/11/30 12:32:15;;;;;;;2.00;1.23;;;5.10;99.90;;;;;;5031278;28;20213;-61
2021/11/30 12:34:47;;;;;;;1.70;0.97;;;5.10;99.90;;;;;;5031392;28;20295;-60
2021/11/30 12:37:17;;;;;;;1.00;0.87;;;5.10;99.90;;;;;;5031339;28;20662;-60
2021/11/30 12:40:04;;;;;;;2.70;1.63;;;5.10;99.90;;;;;;5031016;28;20679;-62
2021/11/30 12:42:32;;;;;;;1.27;0.80;;;5.10;99.90;;;;;;5031235;28;20222;-60
2021/11/30 12:44:59;;;;;;;9.57;5.37;;;5.10;99.90;;;;;;5031475;28;20226;-61
2021/11/30 12:47:28;;;;;;;3.00;2.10;;;5.20;99.90;;;;;;5031244;28;20825;-60
2021/11/30 12:49:56;;;;;;;1.50;1.03;;;5.30;99.90;;;;;;5034635;28;20589;-61
2021/11/30 12:52:25;;;;;;;1.60;1.20;;;5.30;99.90;;;;;;5034745;28;20206;-62
2021/11/30 12:54:54;;;;;;;1.40;1.10;;;5.20;99.90;;;;;;5034404;28;20639;-61
2021/11/30 12:57:42;;;;;;;2.53;0.90;;;5.20;99.90;;;;;;5034781;28;20268;-60
2021/11/30 13:00:11;;;;;;;1.77;1.30;;;5.30;99.90;;;;;;5034969;28;20207;-61
2021/11/30 13:02:41;;;;;;;4.90;3.00;;;5.20;99.90;;;;;;5034944;28;20705;-61
2021/11/30 13:05:38;;;;;;;1.57;1.40;;;5.40;99.90;;;;;;5034622;28;20226;-60
2021/11/30 13:08:09;;;;;;;1.77;1.10;;;5.40;99.90;;;;;;5011286;28;20216;-61